createdAt,value
2022-11-16T00:00:20.616Z,0
2022-11-16T00:01:20.639Z,0
2022-11-16T00:02:20.656Z,0
2022-11-16T00:03:20.654Z,0
2022-11-16T00:04:20.654Z,0
2022-11-16T00:05:24.303Z,0
2022-11-16T00:06:20.645Z,0
2022-11-16T00:07:20.701Z,0
2022-11-16T00:08:20.660Z,0
2022-11-16T00:09:20.657Z,0
2022-11-16T00:10:20.661Z,0
2022-11-16T00:11:20.674Z,0
2022-11-16T00:12:20.668Z,0.5
2022-11-16T00:13:20.681Z,0
2022-11-16T00:14:20.698Z,0
2022-11-16T00:15:20.672Z,0
2022-11-16T00:16:20.689Z,0
2022-11-16T00:17:20.678Z,0
2022-11-16T00:18:20.684Z,0
2022-11-16T00:19:20.705Z,0
2022-11-16T00:20:20.678Z,0
2022-11-16T00:21:20.691Z,0
2022-11-16T00:22:20.691Z,0
2022-11-16T00:23:20.718Z,0
2022-11-16T00:24:20.714Z,0
2022-11-16T00:25:20.799Z,0
2022-11-16T00:26:20.708Z,0
2022-11-16T00:27:20.754Z,0
2022-11-16T00:28:20.742Z,0
2022-11-16T00:29:20.753Z,0
2022-11-16T00:30:20.737Z,0
2022-11-16T00:31:20.745Z,0
2022-11-16T00:32:20.740Z,0
2022-11-16T00:33:20.764Z,0
2022-11-16T00:34:20.765Z,0
2022-11-16T00:35:20.768Z,0.8
2022-11-16T00:36:20.763Z,0.8
2022-11-16T00:37:20.784Z,0.5
2022-11-16T00:38:20.767Z,0
2022-11-16T00:39:20.801Z,0
2022-11-16T00:40:20.805Z,0.7
2022-11-16T00:41:20.784Z,0
2022-11-16T00:42:20.779Z,0
2022-11-16T00:43:20.783Z,1
2022-11-16T00:44:20.824Z,2.4
2022-11-16T00:45:20.784Z,0.6
2022-11-16T00:46:20.818Z,0
2022-11-16T00:47:20.813Z,0
2022-11-16T00:48:20.819Z,1.3
2022-11-16T00:49:20.833Z,1
2022-11-16T00:50:20.805Z,0.9
2022-11-16T00:51:20.813Z,0.8
2022-11-16T00:52:20.823Z,0
2022-11-16T00:53:20.837Z,0
2022-11-16T00:54:20.847Z,0
2022-11-16T00:55:20.853Z,0
2022-11-16T00:56:20.843Z,0.9
2022-11-16T00:57:20.858Z,0
2022-11-16T00:58:20.867Z,1
2022-11-16T00:59:20.869Z,1.1
2022-11-16T01:00:20.850Z,0
2022-11-16T01:01:20.889Z,0
2022-11-16T01:02:20.863Z,0.8
2022-11-16T01:03:20.855Z,0.6
2022-11-16T01:04:20.861Z,0.8
2022-11-16T01:05:20.843Z,0
2022-11-16T01:06:20.932Z,0
2022-11-16T01:07:20.856Z,0.6
2022-11-16T01:08:20.858Z,0.7
2022-11-16T01:09:20.877Z,0
2022-11-16T01:10:20.853Z,0
2022-11-16T01:11:20.879Z,0
2022-11-16T01:12:20.861Z,0
2022-11-16T01:13:20.861Z,0
2022-11-16T01:14:20.883Z,0
2022-11-16T01:15:20.878Z,0
2022-11-16T01:16:20.879Z,0
2022-11-16T01:17:20.895Z,0
2022-11-16T01:18:20.889Z,0
2022-11-16T01:19:20.896Z,0
2022-11-16T01:20:20.893Z,0
2022-11-16T01:21:20.883Z,0
2022-11-16T01:22:20.884Z,0
2022-11-16T01:23:20.897Z,0
2022-11-16T01:24:20.909Z,0
2022-11-16T01:25:20.899Z,0
2022-11-16T01:26:20.938Z,0
2022-11-16T01:27:21.086Z,0
2022-11-16T01:28:20.899Z,0
2022-11-16T01:29:20.919Z,0
2022-11-16T01:30:20.915Z,0
2022-11-16T01:31:20.915Z,0
2022-11-16T01:32:20.935Z,0
2022-11-16T01:33:20.938Z,0
2022-11-16T01:34:20.934Z,0
2022-11-16T01:35:20.931Z,0
2022-11-16T01:36:20.934Z,0
2022-11-16T01:37:20.939Z,0
2022-11-16T01:38:21.803Z,0
2022-11-16T01:39:20.947Z,0
2022-11-16T01:40:20.941Z,0
2022-11-16T01:41:20.945Z,0
2022-11-16T01:42:20.952Z,0
2022-11-16T01:43:20.999Z,0
2022-11-16T01:44:20.975Z,0
2022-11-16T01:45:20.955Z,0.6
2022-11-16T01:46:20.992Z,0
2022-11-16T01:47:20.951Z,0
2022-11-16T01:48:21.050Z,0
2022-11-16T01:49:20.987Z,0
2022-11-16T01:50:20.966Z,0
2022-11-16T01:51:21.010Z,0
2022-11-16T01:52:20.968Z,0
2022-11-16T01:53:20.978Z,0
2022-11-16T01:54:21.007Z,0
2022-11-16T01:55:21.007Z,0
2022-11-16T01:56:20.986Z,0
2022-11-16T01:57:20.977Z,0
2022-11-16T01:58:20.996Z,0
2022-11-16T01:59:21.027Z,0
2022-11-16T02:00:20.988Z,0
2022-11-16T02:01:21.101Z,0
2022-11-16T02:02:21.011Z,0
2022-11-16T02:03:21.026Z,0
2022-11-16T02:04:21.037Z,0
2022-11-16T02:05:21.034Z,0
2022-11-16T02:06:21.017Z,0
2022-11-16T02:07:21.152Z,0
2022-11-16T02:08:21.027Z,0
2022-11-16T02:09:21.025Z,0
2022-11-16T02:10:21.017Z,0
2022-11-16T02:11:21.017Z,0
2022-11-16T02:12:21.032Z,0
2022-11-16T02:13:21.022Z,0
2022-11-16T02:14:21.051Z,0
2022-11-16T02:15:21.062Z,0
2022-11-16T02:16:21.046Z,0
2022-11-16T02:17:21.058Z,0
2022-11-16T02:18:21.055Z,0
2022-11-16T02:19:21.061Z,0
2022-11-16T02:20:21.060Z,0
2022-11-16T02:21:21.061Z,0
2022-11-16T02:22:21.063Z,0
2022-11-16T02:23:21.056Z,0
2022-11-16T02:24:21.089Z,0
2022-11-16T02:25:21.074Z,0
2022-11-16T02:26:21.067Z,0
2022-11-16T02:27:21.061Z,0
2022-11-16T02:28:21.096Z,0
2022-11-16T02:29:21.083Z,0
2022-11-16T02:30:21.080Z,0
2022-11-16T02:31:21.128Z,0
2022-11-16T02:32:21.093Z,0
2022-11-16T02:33:21.087Z,0
2022-11-16T02:34:21.152Z,0
2022-11-16T02:35:21.113Z,0
2022-11-16T02:36:21.108Z,0
2022-11-16T02:37:21.107Z,0
2022-11-16T02:38:21.121Z,0
2022-11-16T02:39:21.118Z,0
2022-11-16T02:40:21.103Z,0
2022-11-16T02:41:21.108Z,0
2022-11-16T02:42:21.104Z,0
2022-11-16T02:43:21.109Z,0
2022-11-16T02:44:21.124Z,0
2022-11-16T02:45:21.114Z,0
2022-11-16T02:46:21.187Z,0
2022-11-16T02:47:21.157Z,0
2022-11-16T02:48:21.143Z,0
2022-11-16T02:49:21.151Z,0
2022-11-16T02:50:21.148Z,0
2022-11-16T02:51:21.135Z,0
2022-11-16T02:52:21.142Z,0
2022-11-16T02:53:21.140Z,0.8
2022-11-16T02:54:21.149Z,0
2022-11-16T02:55:21.138Z,0
2022-11-16T02:56:21.137Z,0
2022-11-16T02:57:21.140Z,0
2022-11-16T02:58:21.188Z,0
2022-11-16T02:59:21.258Z,0
2022-11-16T03:00:21.212Z,0
2022-11-16T03:01:21.319Z,0
2022-11-16T03:02:21.202Z,0
2022-11-16T03:03:21.235Z,0
2022-11-16T03:04:21.212Z,0
2022-11-16T03:05:21.204Z,0
2022-11-16T03:06:21.212Z,0
2022-11-16T03:07:21.299Z,0
2022-11-16T03:08:21.440Z,0
2022-11-16T03:09:21.226Z,0
2022-11-16T03:10:21.203Z,0
2022-11-16T03:11:21.204Z,0
2022-11-16T03:12:21.202Z,0
2022-11-16T03:13:21.231Z,0
2022-11-16T03:14:21.213Z,0
2022-11-16T03:15:21.206Z,0
2022-11-16T03:16:21.207Z,0
2022-11-16T03:17:21.211Z,0
2022-11-16T03:18:21.229Z,0
2022-11-16T03:19:21.269Z,0
2022-11-16T03:20:21.231Z,0.7
2022-11-16T03:21:21.226Z,0.8
2022-11-16T03:22:21.240Z,0
2022-11-16T03:23:21.245Z,0.7
2022-11-16T03:24:21.262Z,0
2022-11-16T03:25:21.227Z,0
2022-11-16T03:26:21.229Z,0
2022-11-16T03:27:21.257Z,0
2022-11-16T03:28:21.251Z,0
2022-11-16T03:29:21.256Z,0
2022-11-16T03:30:23.704Z,0
2022-11-16T03:31:21.266Z,0
2022-11-16T03:32:21.259Z,0
2022-11-16T03:33:21.279Z,0
2022-11-16T03:34:21.280Z,0
2022-11-16T03:35:21.297Z,0
2022-11-16T03:36:21.267Z,0
2022-11-16T03:37:21.265Z,0
2022-11-16T03:38:21.269Z,0
2022-11-16T03:39:21.300Z,0
2022-11-16T03:40:21.302Z,0
2022-11-16T03:41:21.285Z,0.5
2022-11-16T03:42:21.389Z,0
2022-11-16T03:43:21.342Z,0
2022-11-16T03:44:21.362Z,0
2022-11-16T03:45:21.357Z,0
2022-11-16T03:46:21.336Z,0
2022-11-16T03:47:21.452Z,0
2022-11-16T03:48:21.371Z,0
2022-11-16T03:49:21.364Z,0
2022-11-16T03:50:21.355Z,0
2022-11-16T03:51:21.388Z,0
2022-11-16T03:52:21.344Z,0
2022-11-16T03:53:21.358Z,0
2022-11-16T03:54:21.370Z,0.6
2022-11-16T03:55:21.364Z,0.5
2022-11-16T03:56:21.361Z,0
2022-11-16T03:57:21.385Z,0
2022-11-16T03:58:21.365Z,0
2022-11-16T03:59:21.374Z,0
2022-11-16T04:00:21.388Z,0
2022-11-16T04:01:21.389Z,0
2022-11-16T04:02:21.376Z,0
2022-11-16T04:03:21.361Z,0
2022-11-16T04:04:21.390Z,0
2022-11-16T04:05:21.353Z,0
2022-11-16T04:06:21.369Z,0
2022-11-16T04:07:21.474Z,0
2022-11-16T04:08:21.364Z,0
2022-11-16T04:09:21.394Z,0
2022-11-16T04:10:21.400Z,0.7
2022-11-16T04:11:21.449Z,0.5
2022-11-16T04:12:21.401Z,0.6
2022-11-16T04:13:21.390Z,0.5
2022-11-16T04:14:21.401Z,0
2022-11-16T04:15:21.394Z,0.7
2022-11-16T04:16:21.391Z,0
2022-11-16T04:17:21.405Z,1
2022-11-16T04:18:21.391Z,0
2022-11-16T04:19:21.408Z,1.2
2022-11-16T04:20:21.391Z,0.5
2022-11-16T04:21:21.405Z,0.5
2022-11-16T04:22:21.407Z,1.2
2022-11-16T04:23:21.436Z,0.8
2022-11-16T04:24:21.442Z,1.1
2022-11-16T04:25:21.411Z,1.1
2022-11-16T04:26:21.433Z,0.5
2022-11-16T04:27:21.416Z,0
2022-11-16T04:28:21.422Z,0
2022-11-16T04:29:21.440Z,0
2022-11-16T04:30:21.426Z,0
2022-11-16T04:31:21.417Z,0
2022-11-16T04:32:21.477Z,0
2022-11-16T04:33:21.434Z,0
2022-11-16T04:34:21.459Z,0
2022-11-16T04:35:21.440Z,0
2022-11-16T04:36:21.452Z,0.5
2022-11-16T04:37:21.449Z,0
2022-11-16T04:38:21.454Z,0
2022-11-16T04:39:21.506Z,0
2022-11-16T04:40:21.466Z,0
2022-11-16T04:41:21.462Z,0
2022-11-16T04:42:21.472Z,0
2022-11-16T04:43:21.466Z,0
2022-11-16T04:44:24.769Z,0
2022-11-16T04:45:21.538Z,0
2022-11-16T04:46:21.533Z,0
2022-11-16T04:47:21.539Z,0
2022-11-16T04:48:21.563Z,0
2022-11-16T04:49:21.553Z,0
2022-11-16T04:50:21.570Z,0
2022-11-16T04:51:21.578Z,0
2022-11-16T04:52:21.557Z,0
2022-11-16T04:53:21.541Z,0
2022-11-16T04:54:21.551Z,0
2022-11-16T04:55:21.563Z,0
2022-11-16T04:56:21.558Z,0
2022-11-16T04:57:21.545Z,0
2022-11-16T04:58:21.556Z,0
2022-11-16T04:59:21.556Z,0
2022-11-16T05:00:21.560Z,0
2022-11-16T05:01:21.591Z,0
2022-11-16T05:02:21.561Z,0
2022-11-16T05:03:21.562Z,0
2022-11-16T05:04:21.559Z,0
2022-11-16T05:05:21.564Z,0
2022-11-16T05:06:21.564Z,0
2022-11-16T05:07:21.623Z,0
2022-11-16T05:08:21.567Z,0
2022-11-16T05:09:21.597Z,0
2022-11-16T05:10:21.565Z,0
2022-11-16T05:11:21.578Z,0
2022-11-16T05:12:21.553Z,0
2022-11-16T05:13:21.558Z,0
2022-11-16T05:14:21.580Z,0
2022-11-16T05:15:21.575Z,0.5
2022-11-16T05:16:21.578Z,0.8
2022-11-16T05:17:21.575Z,0.5
2022-11-16T05:18:21.577Z,0
2022-11-16T05:19:21.592Z,0
2022-11-16T05:20:21.588Z,0
2022-11-16T05:21:21.583Z,0
2022-11-16T05:22:21.584Z,0
2022-11-16T05:23:21.588Z,0
2022-11-16T05:24:21.604Z,0
2022-11-16T05:25:21.591Z,0
2022-11-16T05:26:21.587Z,0
2022-11-16T05:27:21.630Z,0
2022-11-16T05:28:21.590Z,0
2022-11-16T05:29:21.620Z,0
2022-11-16T05:30:21.596Z,0
2022-11-16T05:31:21.597Z,0
2022-11-16T05:32:21.606Z,0
2022-11-16T05:33:21.600Z,0
2022-11-16T05:34:21.617Z,0
2022-11-16T05:35:21.676Z,0
2022-11-16T05:36:21.636Z,0
2022-11-16T05:37:21.652Z,0
2022-11-16T05:38:21.637Z,0
2022-11-16T05:39:21.680Z,0
2022-11-16T05:40:21.640Z,0
2022-11-16T05:41:21.647Z,0
2022-11-16T05:42:21.651Z,0
2022-11-16T05:43:21.678Z,0
2022-11-16T05:44:21.648Z,0
2022-11-16T05:45:21.637Z,0
2022-11-16T05:46:21.641Z,0
2022-11-16T05:47:21.665Z,0
2022-11-16T05:48:21.673Z,0.7
2022-11-16T05:49:21.718Z,0.8
2022-11-16T05:50:21.667Z,0
2022-11-16T05:51:21.655Z,0
2022-11-16T05:52:21.657Z,0
2022-11-16T05:53:21.710Z,0
2022-11-16T05:54:21.697Z,0
2022-11-16T05:55:21.708Z,0
2022-11-16T05:56:21.736Z,0
2022-11-16T05:57:21.720Z,0
2022-11-16T05:58:21.683Z,0
2022-11-16T05:59:21.752Z,0
2022-11-16T06:00:21.687Z,1.3
2022-11-16T06:01:21.695Z,0
2022-11-16T06:02:21.692Z,0
2022-11-16T06:03:21.744Z,0
2022-11-16T06:04:23.583Z,0
2022-11-16T06:05:21.712Z,0
2022-11-16T06:06:21.695Z,0.5
2022-11-16T06:07:21.763Z,0
2022-11-16T06:08:21.790Z,0
2022-11-16T06:09:21.764Z,0
2022-11-16T06:10:21.753Z,0
2022-11-16T06:11:21.762Z,0
2022-11-16T06:12:21.752Z,0
2022-11-16T06:13:21.763Z,0
2022-11-16T06:14:21.804Z,0
2022-11-16T06:15:21.780Z,0
2022-11-16T06:16:22.119Z,0
2022-11-16T06:17:21.780Z,0
2022-11-16T06:18:21.779Z,0
2022-11-16T06:19:21.785Z,0
2022-11-16T06:20:21.779Z,0
2022-11-16T06:21:21.786Z,0
2022-11-16T06:22:21.799Z,0
2022-11-16T06:23:21.769Z,0
2022-11-16T06:24:21.918Z,0
2022-11-16T06:25:21.802Z,0
2022-11-16T06:26:21.779Z,0
2022-11-16T06:27:21.785Z,0
2022-11-16T06:28:21.767Z,0
2022-11-16T06:29:21.782Z,0
2022-11-16T06:30:21.774Z,0
2022-11-16T06:31:21.772Z,0
2022-11-16T06:32:21.887Z,0
2022-11-16T06:33:21.782Z,0.5
2022-11-16T06:34:21.789Z,0
2022-11-16T06:35:21.809Z,0
2022-11-16T06:36:21.785Z,0
2022-11-16T06:37:21.783Z,0
2022-11-16T06:38:21.786Z,0
2022-11-16T06:39:21.788Z,0
2022-11-16T06:40:21.782Z,0
2022-11-16T06:41:21.780Z,0
2022-11-16T06:42:21.791Z,0
2022-11-16T06:43:21.799Z,0
2022-11-16T06:44:21.794Z,0
2022-11-16T06:45:21.785Z,0
2022-11-16T06:46:21.781Z,0
2022-11-16T06:47:21.783Z,0.8
2022-11-16T06:48:21.898Z,0
2022-11-16T06:49:21.802Z,0.7
2022-11-16T06:50:21.791Z,0.5
2022-11-16T06:51:21.803Z,0
2022-11-16T06:52:21.800Z,0
2022-11-16T06:53:26.037Z,0.9
2022-11-16T06:54:21.821Z,0
2022-11-16T06:55:21.900Z,0.5
2022-11-16T06:56:21.818Z,0
2022-11-16T06:57:21.808Z,0
2022-11-16T06:58:21.827Z,0
2022-11-16T06:59:21.821Z,0
2022-11-16T07:00:21.808Z,0
2022-11-16T07:01:21.905Z,0
2022-11-16T07:02:21.811Z,0
2022-11-16T07:03:21.814Z,0
2022-11-16T07:04:22.099Z,0.5
2022-11-16T07:05:21.830Z,0.8
2022-11-16T07:06:21.837Z,0
2022-11-16T07:07:21.860Z,0
2022-11-16T07:08:21.833Z,0
2022-11-16T07:09:21.849Z,0
2022-11-16T07:10:21.846Z,0
2022-11-16T07:11:21.847Z,0
2022-11-16T07:12:21.845Z,1.1
2022-11-16T07:13:21.841Z,0.7
2022-11-16T07:14:21.865Z,0
2022-11-16T07:15:21.868Z,0
2022-11-16T07:16:21.854Z,0
2022-11-16T07:17:21.864Z,0
2022-11-16T07:18:21.854Z,0
2022-11-16T07:19:21.867Z,0.5
2022-11-16T07:20:21.987Z,0
2022-11-16T07:21:21.887Z,0.8
2022-11-16T07:22:21.875Z,0.5
2022-11-16T07:23:21.883Z,0
2022-11-16T07:24:21.893Z,0
2022-11-16T07:25:21.888Z,0
2022-11-16T07:26:21.884Z,1
2022-11-16T07:27:21.891Z,0.9
2022-11-16T07:28:21.893Z,0.5
2022-11-16T07:29:21.905Z,1.1
2022-11-16T07:30:21.886Z,0.9
2022-11-16T07:31:22.082Z,0.7
2022-11-16T07:32:21.903Z,0.8
2022-11-16T07:33:21.897Z,0
2022-11-16T07:34:21.915Z,0
2022-11-16T07:35:21.895Z,0
2022-11-16T07:36:22.004Z,0
2022-11-16T07:37:21.888Z,0.5
2022-11-16T07:38:21.888Z,0.8
2022-11-16T07:39:21.947Z,0.9
2022-11-16T07:40:21.889Z,0
2022-11-16T07:41:21.924Z,0.8
2022-11-16T07:42:21.916Z,0
2022-11-16T07:43:21.914Z,0
2022-11-16T07:44:21.939Z,0
2022-11-16T07:45:21.919Z,0
2022-11-16T07:46:45.773Z,0
2022-11-16T07:47:21.915Z,0
2022-11-16T07:48:21.927Z,0
2022-11-16T07:49:21.938Z,0
2022-11-16T07:50:21.933Z,0
2022-11-16T07:51:21.911Z,0.7
2022-11-16T07:52:21.938Z,0
2022-11-16T07:53:21.918Z,0
2022-11-16T07:54:21.940Z,0
2022-11-16T07:55:21.932Z,0
2022-11-16T07:56:21.929Z,0
2022-11-16T07:57:21.977Z,0
2022-11-16T07:58:21.947Z,0
2022-11-16T07:59:21.959Z,0.6
2022-11-16T08:00:21.955Z,0
2022-11-16T08:01:22.000Z,0.9
2022-11-16T08:02:21.960Z,0.6
2022-11-16T08:03:24.720Z,0
2022-11-16T08:04:21.966Z,0
2022-11-16T08:05:21.956Z,0
2022-11-16T08:06:21.951Z,0
2022-11-16T08:07:21.990Z,0
2022-11-16T08:08:22.082Z,0
2022-11-16T08:09:21.989Z,0
2022-11-16T08:10:22.031Z,0
2022-11-16T08:11:21.957Z,0
2022-11-16T08:12:21.968Z,0
2022-11-16T08:13:21.957Z,0
2022-11-16T08:14:21.985Z,0
2022-11-16T08:15:21.987Z,0.5
2022-11-16T08:16:21.966Z,1.1
2022-11-16T08:17:21.985Z,0
2022-11-16T08:18:21.981Z,1
2022-11-16T08:19:21.993Z,0.5
2022-11-16T08:20:21.971Z,1
2022-11-16T08:21:21.984Z,0.8
2022-11-16T08:22:21.981Z,1.2
2022-11-16T08:23:21.980Z,0.6
2022-11-16T08:24:22.026Z,0.8
2022-11-16T08:25:21.994Z,0
2022-11-16T08:26:22.068Z,0
2022-11-16T08:27:21.998Z,1.1
2022-11-16T08:28:22.002Z,0.7
2022-11-16T08:29:22.016Z,1.8
2022-11-16T08:30:22.002Z,1.6
2022-11-16T08:31:22.011Z,0
2022-11-16T08:32:22.005Z,0.7
2022-11-16T08:33:22.016Z,1.1
2022-11-16T08:34:22.026Z,0.6
2022-11-16T08:35:22.019Z,1.5
2022-11-16T08:36:22.032Z,0.9
2022-11-16T08:37:22.016Z,2.2
2022-11-16T08:38:22.025Z,2.2
2022-11-16T08:39:22.031Z,0
2022-11-16T08:40:22.051Z,1.2
2022-11-16T08:41:22.041Z,1.4
2022-11-16T08:42:22.038Z,0
2022-11-16T08:43:22.038Z,1.2
2022-11-16T08:44:22.047Z,0.9
2022-11-16T08:45:22.044Z,1.5
2022-11-16T08:46:22.046Z,0.9
2022-11-16T08:47:22.062Z,0.7
2022-11-16T08:48:22.048Z,0.5
2022-11-16T08:49:22.073Z,1
2022-11-16T08:50:22.070Z,0
2022-11-16T08:51:22.058Z,1
2022-11-16T08:52:22.082Z,0.6
2022-11-16T08:53:22.076Z,1.2
2022-11-16T08:54:22.077Z,1.1
2022-11-16T08:55:22.067Z,0.8
2022-11-16T08:56:22.082Z,2.6
2022-11-16T08:57:22.060Z,1.3
2022-11-16T08:58:22.089Z,2.4
2022-11-16T08:59:22.328Z,1.1
2022-11-16T09:00:22.229Z,0.5
2022-11-16T09:01:22.143Z,0.6
2022-11-16T09:02:22.091Z,1.4
2022-11-16T09:03:22.118Z,0
2022-11-16T09:04:22.120Z,0.5
2022-11-16T09:05:22.121Z,1
2022-11-16T09:06:22.113Z,1
2022-11-16T09:07:22.170Z,1.2
2022-11-16T09:08:22.106Z,2.4
2022-11-16T09:09:22.119Z,1.9
2022-11-16T09:10:22.135Z,1.6
2022-11-16T09:11:22.137Z,0.9
2022-11-16T09:12:22.137Z,1.1
2022-11-16T09:13:22.121Z,0.5
2022-11-16T09:14:22.158Z,3.6
2022-11-16T09:15:22.135Z,2.4
2022-11-16T09:16:22.151Z,1.2
2022-11-16T09:17:23.349Z,1.5
2022-11-16T09:18:22.130Z,0.7
2022-11-16T09:19:22.135Z,1.9
2022-11-16T09:20:22.127Z,0
2022-11-16T09:21:22.173Z,0
2022-11-16T09:22:22.139Z,3.2
2022-11-16T09:23:25.232Z,1.9
2022-11-16T09:24:22.171Z,0.6
2022-11-16T09:25:22.137Z,2.4
2022-11-16T09:26:22.135Z,2.4
2022-11-16T09:27:22.142Z,2.4
2022-11-16T09:28:22.260Z,1.1
2022-11-16T09:29:22.182Z,0.8
2022-11-16T09:30:22.170Z,2.7
2022-11-16T09:31:23.659Z,0
2022-11-16T09:32:22.163Z,0.5
2022-11-16T09:33:22.185Z,0.8
2022-11-16T09:34:22.186Z,0
2022-11-16T09:35:22.299Z,0
2022-11-16T09:36:22.176Z,0.8
2022-11-16T09:37:22.202Z,1
2022-11-16T09:38:34.820Z,0
2022-11-16T09:39:31.280Z,1
2022-11-16T09:40:22.174Z,1
2022-11-16T09:41:22.177Z,0
2022-11-16T09:42:22.171Z,2.4
2022-11-16T09:43:22.177Z,3.8
2022-11-16T09:44:22.313Z,1
2022-11-16T09:45:22.188Z,1
2022-11-16T09:46:22.169Z,1
2022-11-16T09:47:22.176Z,0
2022-11-16T09:48:22.194Z,0.6
2022-11-16T09:49:22.211Z,1.3
2022-11-16T09:50:22.191Z,1.9
2022-11-16T09:51:22.183Z,1
2022-11-16T09:52:22.214Z,0.5
2022-11-16T09:53:22.208Z,0
2022-11-16T09:54:22.218Z,0
2022-11-16T09:55:22.225Z,0.9
2022-11-16T09:56:22.691Z,0.8
2022-11-16T09:57:22.203Z,1.1
2022-11-16T09:58:22.226Z,0.8
2022-11-16T09:59:22.241Z,1.3
2022-11-16T10:00:22.355Z,2.4
2022-11-16T10:01:22.305Z,0
2022-11-16T10:02:22.242Z,0
2022-11-16T10:03:22.245Z,0
2022-11-16T10:04:22.264Z,0
2022-11-16T10:05:22.255Z,2.4
2022-11-16T10:06:22.255Z,2.4
2022-11-16T10:07:22.324Z,1.1
2022-11-16T10:08:22.251Z,2.4
2022-11-16T10:09:22.264Z,1.2
2022-11-16T10:10:22.246Z,0.8
2022-11-16T10:11:22.242Z,0.7
2022-11-16T10:12:22.260Z,2.4
2022-11-16T10:13:22.250Z,2.4
2022-11-16T10:14:22.257Z,1.3
2022-11-16T10:15:22.254Z,1.1
2022-11-16T10:16:22.275Z,0.7
2022-11-16T10:17:22.263Z,3.4
2022-11-16T10:18:22.260Z,2.4
2022-11-16T10:19:22.293Z,2.4
2022-11-16T10:20:25.061Z,2.2
2022-11-16T10:21:22.495Z,0.9
2022-11-16T10:22:22.268Z,1.9
2022-11-16T10:23:22.276Z,1.5
2022-11-16T10:24:22.339Z,1.9
2022-11-16T10:25:22.329Z,1.9
2022-11-16T10:26:22.305Z,1.3
2022-11-16T10:27:22.418Z,0.9
2022-11-16T10:28:22.304Z,1.5
2022-11-16T10:29:22.337Z,1.8
2022-11-16T10:30:22.323Z,2.4
2022-11-16T10:31:22.301Z,2.5
2022-11-16T10:32:22.325Z,0.8
2022-11-16T10:33:22.306Z,3.2
2022-11-16T10:34:22.317Z,2.4
2022-11-16T10:35:22.310Z,1.1
2022-11-16T10:36:22.303Z,1.1
2022-11-16T10:37:22.301Z,2.5
2022-11-16T10:38:22.302Z,2.7
2022-11-16T10:39:22.317Z,3.1
2022-11-16T10:40:22.323Z,1.2
2022-11-16T10:41:22.311Z,0.8
2022-11-16T10:42:22.373Z,0
2022-11-16T10:43:22.318Z,1.1
2022-11-16T10:44:22.330Z,1.6
2022-11-16T10:45:22.324Z,3.1
2022-11-16T10:46:22.334Z,0.6
2022-11-16T10:47:22.356Z,1.1
2022-11-16T10:48:22.447Z,0.8
2022-11-16T10:49:22.382Z,1.1
2022-11-16T10:50:22.354Z,0.8
2022-11-16T10:51:22.360Z,0.8
2022-11-16T10:52:22.351Z,0.7
2022-11-16T10:53:22.357Z,1.1
2022-11-16T10:54:22.377Z,2.5
2022-11-16T10:55:22.366Z,3.4
2022-11-16T10:56:22.352Z,2
2022-11-16T10:57:22.348Z,1.2
2022-11-16T10:58:22.364Z,0.9
2022-11-16T10:59:22.381Z,2.1
2022-11-16T11:00:22.479Z,0.8
2022-11-16T11:01:22.433Z,0.7
2022-11-16T11:02:22.368Z,0.9
2022-11-16T11:03:22.376Z,0.6
2022-11-16T11:04:22.427Z,0
2022-11-16T11:05:22.359Z,2.4
2022-11-16T11:06:22.369Z,0.8
2022-11-16T11:07:22.412Z,0.8
2022-11-16T11:08:22.383Z,1.6
2022-11-16T11:09:22.416Z,1.1
2022-11-16T11:10:22.422Z,1.2
2022-11-16T11:11:22.396Z,1.6
2022-11-16T11:12:22.454Z,0.7
2022-11-16T11:13:22.404Z,1.8
2022-11-16T11:14:22.415Z,1
2022-11-16T11:15:25.777Z,2.7
2022-11-16T11:16:22.407Z,2.5
2022-11-16T11:17:22.398Z,2.5
2022-11-16T11:18:22.408Z,2.1
2022-11-16T11:19:22.426Z,1.8
2022-11-16T11:20:22.542Z,1.6
2022-11-16T11:21:22.431Z,2.1
2022-11-16T11:22:22.417Z,2.4
2022-11-16T11:23:22.424Z,1.2
2022-11-16T11:24:44.234Z,0.8
2022-11-16T11:25:22.421Z,2.2
2022-11-16T11:26:22.509Z,3.2
2022-11-16T11:27:22.452Z,2.6
2022-11-16T11:28:22.459Z,1.3
2022-11-16T11:29:22.467Z,0.7
2022-11-16T11:30:22.463Z,1
2022-11-16T11:31:22.519Z,2.4
2022-11-16T11:32:24.309Z,0.6
2022-11-16T11:33:22.447Z,2.4
2022-11-16T11:34:22.464Z,1.8
2022-11-16T11:35:22.451Z,1.2
2022-11-16T11:36:22.567Z,0.7
2022-11-16T11:37:22.461Z,0
2022-11-16T11:38:22.493Z,0.5
2022-11-16T11:39:22.473Z,0.6
2022-11-16T11:40:22.490Z,1
2022-11-16T11:41:22.468Z,2.4
2022-11-16T11:42:22.477Z,1.6
2022-11-16T11:43:22.463Z,3
2022-11-16T11:44:22.472Z,1.3
2022-11-16T11:45:22.465Z,1.1
2022-11-16T11:46:22.597Z,2.4
2022-11-16T11:47:56.017Z,1
2022-11-16T11:48:22.484Z,0.6
2022-11-16T11:49:22.503Z,1.1
2022-11-16T11:50:22.472Z,0.5
2022-11-16T11:51:22.474Z,1
2022-11-16T11:52:22.658Z,0.7
2022-11-16T11:53:22.514Z,2.4
2022-11-16T11:54:22.520Z,0.9
2022-11-16T11:55:22.504Z,2.4
2022-11-16T11:56:22.498Z,0.9
2022-11-16T11:57:22.517Z,0.5
2022-11-16T11:58:22.491Z,0.5
2022-11-16T11:59:22.509Z,0.7
2022-11-16T12:00:22.502Z,0
2022-11-16T12:01:25.404Z,0.6
2022-11-16T12:02:22.514Z,1.2
2022-11-16T12:03:22.550Z,1.5
2022-11-16T12:04:22.540Z,1.5
2022-11-16T12:05:22.528Z,2.2
2022-11-16T12:06:22.526Z,0.7
2022-11-16T12:07:22.588Z,0.9
2022-11-16T12:08:22.700Z,1.1
2022-11-16T12:09:22.571Z,0.9
2022-11-16T12:10:22.550Z,0.6
2022-11-16T12:11:22.550Z,2.4
2022-11-16T12:12:22.568Z,0.8
2022-11-16T12:13:22.562Z,1.3
2022-11-16T12:14:22.549Z,1.8
2022-11-16T12:15:22.556Z,2.5
2022-11-16T12:16:22.549Z,3.8
2022-11-16T12:17:22.627Z,0.8
2022-11-16T12:18:22.550Z,1.1
2022-11-16T12:19:22.571Z,1.6
2022-11-16T12:20:22.567Z,2.4
2022-11-16T12:21:22.615Z,2.1
2022-11-16T12:22:22.571Z,0.7
2022-11-16T12:23:22.582Z,0.7
2022-11-16T12:24:22.705Z,0
2022-11-16T12:25:22.623Z,0
2022-11-16T12:26:22.607Z,0.8
2022-11-16T12:27:22.599Z,2.7
2022-11-16T12:28:22.593Z,3.4
2022-11-16T12:29:22.602Z,1
2022-11-16T12:30:22.599Z,1.5
2022-11-16T12:31:22.597Z,1.1
2022-11-16T12:32:22.739Z,0.8
2022-11-16T12:33:22.652Z,0
2022-11-16T12:34:22.622Z,0
2022-11-16T12:35:22.615Z,0
2022-11-16T12:36:22.629Z,1.3
2022-11-16T12:37:22.725Z,0.8
2022-11-16T12:38:26.191Z,0
2022-11-16T12:39:22.629Z,0
2022-11-16T12:40:22.742Z,0.8
2022-11-16T12:41:22.664Z,0
2022-11-16T12:42:22.635Z,0
2022-11-16T12:43:22.636Z,0
2022-11-16T12:44:22.649Z,0
2022-11-16T12:45:24.382Z,0
2022-11-16T12:46:22.639Z,0
2022-11-16T12:47:22.765Z,0
2022-11-16T12:48:22.645Z,0
2022-11-16T12:49:22.647Z,0
2022-11-16T12:50:22.642Z,1.9
2022-11-16T12:51:25.259Z,1
2022-11-16T12:52:22.685Z,1
2022-11-16T12:53:22.677Z,1.1
2022-11-16T12:54:22.696Z,1
2022-11-16T12:55:27.044Z,1.3
2022-11-16T12:56:22.732Z,0
2022-11-16T12:57:22.665Z,2.4
2022-11-16T12:58:22.664Z,2.4
2022-11-16T12:59:22.686Z,1.5
2022-11-16T13:00:22.672Z,2.4
2022-11-16T13:01:22.738Z,1.1
2022-11-16T13:02:22.667Z,0.8
2022-11-16T13:03:22.692Z,0
2022-11-16T13:04:22.689Z,1.1
2022-11-16T13:05:22.712Z,0.7
2022-11-16T13:06:22.713Z,1
2022-11-16T13:07:22.799Z,1.1
2022-11-16T13:08:22.704Z,0.7
2022-11-16T13:09:22.713Z,0.7
2022-11-16T13:10:22.777Z,0.7
2022-11-16T13:11:22.770Z,1.6
2022-11-16T13:12:22.915Z,0.8
2022-11-16T13:13:35.789Z,1.1
2022-11-16T13:14:22.781Z,2.4
2022-11-16T13:15:22.781Z,1.6
2022-11-16T13:16:22.774Z,2.4
2022-11-16T13:17:22.788Z,0.7
2022-11-16T13:18:22.769Z,2.4
2022-11-16T13:19:22.794Z,1.9
2022-11-16T13:20:22.779Z,1.3
2022-11-16T13:21:22.776Z,0.8
2022-11-16T13:22:22.936Z,1.1
2022-11-16T13:23:22.773Z,0.7
2022-11-16T13:24:22.770Z,0.7
2022-11-16T13:25:22.767Z,0.9
2022-11-16T13:26:22.782Z,0
2022-11-16T13:27:22.779Z,0.8
2022-11-16T13:28:22.792Z,2.2
2022-11-16T13:29:22.792Z,2.4
2022-11-16T13:30:22.775Z,2.4
2022-11-16T13:31:22.769Z,2.1
2022-11-16T13:32:22.789Z,1
2022-11-16T13:33:22.768Z,0.8
2022-11-16T13:34:22.788Z,1.2
2022-11-16T13:35:22.781Z,2.5
2022-11-16T13:36:22.770Z,0.8
2022-11-16T13:37:22.770Z,1
2022-11-16T13:38:22.774Z,1.3
2022-11-16T13:39:23.202Z,2.2
2022-11-16T13:40:22.782Z,2.5
2022-11-16T13:41:23.031Z,1.1
2022-11-16T13:42:22.776Z,2.4
2022-11-16T13:43:22.785Z,0
2022-11-16T13:44:22.925Z,0
2022-11-16T13:45:22.781Z,0.8
2022-11-16T13:46:53.954Z,2.4
2022-11-16T13:47:22.802Z,0.8
2022-11-16T13:48:23.013Z,2.4
2022-11-16T13:49:22.798Z,1.2
2022-11-16T13:50:22.777Z,1
2022-11-16T13:51:22.776Z,1.1
2022-11-16T13:52:24.931Z,0.5
2022-11-16T13:54:44.934Z,2.4
2022-11-16T13:55:22.788Z,1.2
2022-11-16T13:56:27.339Z,1.2
2022-11-16T13:57:22.796Z,2.4
2022-11-16T13:58:22.804Z,0
2022-11-16T13:59:22.806Z,3
2022-11-16T14:00:22.855Z,2.4
2022-11-16T14:01:22.875Z,1.6
2022-11-16T14:02:22.796Z,2.2
2022-11-16T14:03:22.939Z,1.1
2022-11-16T14:04:22.837Z,1.6
2022-11-16T14:05:22.798Z,1.3
2022-11-16T14:06:22.796Z,0.8
2022-11-16T14:07:22.833Z,0.9
2022-11-16T14:08:22.784Z,0.7
2022-11-16T14:09:23.455Z,0
2022-11-16T14:10:22.786Z,0
2022-11-16T14:11:22.792Z,2.4
2022-11-16T14:12:22.792Z,1.3
2022-11-16T14:13:22.798Z,2.4
2022-11-16T14:14:22.806Z,0.6
2022-11-16T14:15:22.788Z,0.9
2022-11-16T14:16:22.911Z,0
2022-11-16T14:17:22.787Z,1.1
2022-11-16T14:18:22.805Z,0.6
2022-11-16T14:19:22.803Z,0.7
2022-11-16T14:20:22.794Z,0.6
2022-11-16T14:21:22.795Z,0.8